Salesville, Ohio
Current Conditions -  °F | °C
As of 7:53 PM on Wednesday 22 Oct 2014 (Local Time) from KZZV Reporting Station
Overcast Overcast  
Wind Chill: 45°   Ceiling: 3300
Heat Index: 48°   Visibility: 10mi
Dew Point: 40°   Wind: 7mph
Humidity: 74%   Direction: 330°NNW
Pressure: 30.22"   Gusts: NA
Location:  39.97°N, 81.34°W
Report Text: KZZV 222353Z AUTO 33006KT 10SM OVC033 09/04 A3022 RMK AO2 SLP237 T00890044 10100 20089 58001
Loading
Personal Weather Stations






























Interactive Weather Map
Tropical Storm Tracking
New forecast layout! Learn more

10-Day Weather Forecast

Advertisements
Track Severe Weather on mobile